sensor_id;sensor_type;location;lat;lon;timestamp;pressure;altitude;pressure_sealevel;temperature;humidity
72925;BME280;61070;50.794;7.054;2023-03-16T00:00:13;101233.88;;;1.65;94.04
72925;BME280;61070;50.794;7.054;2023-03-16T00:02:43;101233.03;;;1.66;93.99
72925;BME280;61070;50.794;7.054;2023-03-16T00:05:10;101230.38;;;1.64;93.89
72925;BME280;61070;50.794;7.054;2023-03-16T00:07:37;101218.13;;;1.62;93.88
72925;BME280;61070;50.794;7.054;2023-03-16T00:10:02;101215.41;;;1.59;94.49
72925;BME280;61070;50.794;7.054;2023-03-16T00:12:28;101210.06;;;1.56;94.41
72925;BME280;61070;50.794;7.054;2023-03-16T00:14:54;101218.34;;;1.69;94.40
72925;BME280;61070;50.794;7.054;2023-03-16T00:17:20;101210.81;;;1.52;94.82
72925;BME280;61070;50.794;7.054;2023-03-16T00:19:48;101225.50;;;1.48;95.02
72925;BME280;61070;50.794;7.054;2023-03-16T00:22:15;101224.44;;;1.43;95.32
72925;BME280;61070;50.794;7.054;2023-03-16T00:24:41;101214.78;;;1.40;95.61
72925;BME280;61070;50.794;7.054;2023-03-16T00:27:11;101219.91;;;1.37;95.63
72925;BME280;61070;50.794;7.054;2023-03-16T00:29:45;101213.72;;;1.35;95.67
72925;BME280;61070;50.794;7.054;2023-03-16T00:32:13;101213.81;;;1.37;95.68
72925;BME280;61070;50.794;7.054;2023-03-16T00:34:38;101208.81;;;1.44;95.47
72925;BME280;61070;50.794;7.054;2023-03-16T00:37:03;101201.16;;;1.49;95.11
72925;BME280;61070;50.794;7.054;2023-03-16T00:39:29;101194.97;;;1.47;95.20
72925;BME280;61070;50.794;7.054;2023-03-16T00:41:54;101188.56;;;1.63;94.19
72925;BME280;61070;50.794;7.054;2023-03-16T00:44:22;101195.31;;;1.83;92.56
72925;BME280;61070;50.794;7.054;2023-03-16T00:46:48;101193.75;;;1.90;92.13
72925;BME280;61070;50.794;7.054;2023-03-16T00:49:13;101181.09;;;2.03;90.49
72925;BME280;61070;50.794;7.054;2023-03-16T00:51:38;101192.16;;;2.23;89.13
72925;BME280;61070;50.794;7.054;2023-03-16T00:54:03;101189.53;;;2.23;89.07
72925;BME280;61070;50.794;7.054;2023-03-16T00:56:29;101184.41;;;2.26;89.31
72925;BME280;61070;50.794;7.054;2023-03-16T00:58:55;101185.75;;;2.42;87.97
72925;BME280;61070;50.794;7.054;2023-03-16T01:01:21;101180.31;;;2.36;88.25
72925;BME280;61070;50.794;7.054;2023-03-16T01:03:47;101178.13;;;2.50;87.56
72925;BME280;61070;50.794;7.054;2023-03-16T01:06:14;101179.06;;;2.52;86.97
72925;BME280;61070;50.794;7.054;2023-03-16T01:08:41;101179.50;;;2.69;85.40
72925;BME280;61070;50.794;7.054;2023-03-16T01:11:10;101181.16;;;2.65;85.56
72925;BME280;61070;50.794;7.054;2023-03-16T01:13:37;101182.81;;;2.61;86.03
72925;BME280;61070;50.794;7.054;2023-03-16T01:16:03;101183.88;;;2.68;85.49
72925;BME280;61070;50.794;7.054;2023-03-16T01:18:29;101182.38;;;2.78;85.79
72925;BME280;61070;50.794;7.054;2023-03-16T01:20:58;101189.00;;;2.65;85.38
72925;BME280;61070;50.794;7.054;2023-03-16T01:23:24;101189.13;;;2.70;85.46
72925;BME280;61070;50.794;7.054;2023-03-16T01:25:49;101182.88;;;2.63;86.38
72925;BME280;61070;50.794;7.054;2023-03-16T01:28:19;101170.41;;;2.54;86.78
72925;BME280;61070;50.794;7.054;2023-03-16T01:30:45;101168.44;;;2.47;87.86
72925;BME280;61070;50.794;7.054;2023-03-16T01:33:12;101167.56;;;2.47;87.82
72925;BME280;61070;50.794;7.054;2023-03-16T01:35:37;101155.81;;;2.62;86.86
72925;BME280;61070;50.794;7.054;2023-03-16T01:38:02;101150.13;;;2.46;87.02
72925;BME280;61070;50.794;7.054;2023-03-16T01:40:28;101153.75;;;2.51;86.00
72925;BME280;61070;50.794;7.054;2023-03-16T01:43:01;101146.16;;;2.60;85.40
72925;BME280;61070;50.794;7.054;2023-03-16T01:48:56;101134.63;;;2.52;84.79
72925;BME280;61070;50.794;7.054;2023-03-16T01:51:28;101128.56;;;2.54;84.31
72925;BME280;61070;50.794;7.054;2023-03-16T01:54:10;101131.16;;;2.53;84.58
72925;BME280;61070;50.794;7.054;2023-03-16T01:56:44;101131.00;;;2.48;84.69
72925;BME280;61070;50.794;7.054;2023-03-16T01:59:13;101123.84;;;2.41;85.38
72925;BME280;61070;50.794;7.054;2023-03-16T02:01:41;101114.50;;;2.49;85.02
72925;BME280;61070;50.794;7.054;2023-03-16T02:04:16;101103.91;;;2.45;84.94
72925;BME280;61070;50.794;7.054;2023-03-16T02:06:44;101110.84;;;2.44;85.52
72925;BME280;61070;50.794;7.054;2023-03-16T02:09:11;101105.13;;;2.57;84.96
72925;BME280;61070;50.794;7.054;2023-03-16T02:11:37;101097.13;;;2.51;85.09
72925;BME280;61070;50.794;7.054;2023-03-16T02:14:07;101106.28;;;2.37;85.93
72925;BME280;61070;50.794;7.054;2023-03-16T02:16:33;101096.88;;;2.42;85.44
72925;BME280;61070;50.794;7.054;2023-03-16T02:18:58;101087.38;;;2.46;85.62
72925;BME280;61070;50.794;7.054;2023-03-16T02:23:50;101081.22;;;2.44;85.25
72925;BME280;61070;50.794;7.054;2023-03-16T02:26:57;101091.84;;;2.50;84.87
72925;BME280;61070;50.794;7.054;2023-03-16T02:29:48;101086.44;;;2.44;85.38
72925;BME280;61070;50.794;7.054;2023-03-16T02:32:17;101092.84;;;2.55;83.92
72925;BME280;61070;50.794;7.054;2023-03-16T02:34:43;101090.28;;;2.56;83.91
72925;BME280;61070;50.794;7.054;2023-03-16T02:37:09;101085.41;;;2.70;82.81
72925;BME280;61070;50.794;7.054;2023-03-16T02:39:36;101082.06;;;2.76;81.81
72925;BME280;61070;50.794;7.054;2023-03-16T02:42:01;101082.03;;;2.74;81.60
72925;BME280;61070;50.794;7.054;2023-03-16T02:44:30;101080.16;;;2.70;81.66
72925;BME280;61070;50.794;7.054;2023-03-16T02:47:01;101059.28;;;2.72;81.58
72925;BME280;61070;50.794;7.054;2023-03-16T02:49:37;101056.72;;;2.73;81.16
72925;BME280;61070;50.794;7.054;2023-03-16T02:52:04;101059.22;;;2.69;81.39
72925;BME280;61070;50.794;7.054;2023-03-16T02:54:30;101074.31;;;2.79;80.85
72925;BME280;61070;50.794;7.054;2023-03-16T02:56:55;101071.44;;;2.70;81.43
72925;BME280;61070;50.794;7.054;2023-03-16T02:59:20;101062.81;;;2.72;81.20
72925;BME280;61070;50.794;7.054;2023-03-16T03:01:46;101065.31;;;2.69;81.26
72925;BME280;61070;50.794;7.054;2023-03-16T03:04:11;101059.41;;;2.76;81.34
72925;BME280;61070;50.794;7.054;2023-03-16T03:06:38;101055.78;;;2.71;81.22
72925;BME280;61070;50.794;7.054;2023-03-16T03:09:06;101056.72;;;2.73;81.47
72925;BME280;61070;50.794;7.054;2023-03-16T03:11:31;101056.84;;;2.78;81.56
72925;BME280;61070;50.794;7.054;2023-03-16T03:13:57;101048.28;;;2.83;81.21
72925;BME280;61070;50.794;7.054;2023-03-16T03:16:22;101043.53;;;2.69;81.85
72925;BME280;61070;50.794;7.054;2023-03-16T03:18:48;101052.16;;;2.65;82.23
72925;BME280;61070;50.794;7.054;2023-03-16T03:21:13;101041.50;;;2.58;82.67
72925;BME280;61070;50.794;7.054;2023-03-16T03:23:39;101043.25;;;2.58;82.92
72925;BME280;61070;50.794;7.054;2023-03-16T03:26:04;101043.53;;;2.69;82.50
72925;BME280;61070;50.794;7.054;2023-03-16T03:28:30;101037.84;;;2.50;83.32
72925;BME280;61070;50.794;7.054;2023-03-16T03:30:58;101044.66;;;2.45;84.16
72925;BME280;61070;50.794;7.054;2023-03-16T03:33:24;101041.13;;;2.43;84.05
72925;BME280;61070;50.794;7.054;2023-03-16T03:35:53;101047.34;;;2.48;83.93
72925;BME280;61070;50.794;7.054;2023-03-16T03:38:19;101046.31;;;2.42;83.91
72925;BME280;61070;50.794;7.054;2023-03-16T03:40:48;101045.25;;;2.35;84.10
72925;BME280;61070;50.794;7.054;2023-03-16T03:43:14;101035.56;;;2.31;84.71
72925;BME280;61070;50.794;7.054;2023-03-16T03:45:39;101035.38;;;2.25;85.07
72925;BME280;61070;50.794;7.054;2023-03-16T03:48:04;101038.78;;;2.21;85.52
72925;BME280;61070;50.794;7.054;2023-03-16T03:50:29;101034.31;;;2.17;85.64
72925;BME280;61070;50.794;7.054;2023-03-16T03:52:55;101037.91;;;2.20;85.25
72925;BME280;61070;50.794;7.054;2023-03-16T03:55:20;101032.75;;;2.23;85.32
72925;BME280;61070;50.794;7.054;2023-03-16T03:57:45;101034.69;;;2.30;84.58
72925;BME280;61070;50.794;7.054;2023-03-16T04:00:11;101029.28;;;2.24;85.04
72925;BME280;61070;50.794;7.054;2023-03-16T04:02:37;101032.88;;;2.28;84.64
72925;BME280;61070;50.794;7.054;2023-03-16T04:05:04;101038.00;;;2.25;85.53
72925;BME280;61070;50.794;7.054;2023-03-16T04:07:29;101038.97;;;2.27;85.41
72925;BME280;61070;50.794;7.054;2023-03-16T04:09:55;101033.81;;;2.30;85.32
72925;BME280;61070;50.794;7.054;2023-03-16T04:12:21;101030.41;;;2.34;85.55
72925;BME280;61070;50.794;7.054;2023-03-16T04:14:46;101036.50;;;2.33;85.01
72925;BME280;61070;50.794;7.054;2023-03-16T04:17:12;101034.97;;;2.41;84.26
72925;BME280;61070;50.794;7.054;2023-03-16T04:19:37;101040.84;;;2.32;85.31
72925;BME280;61070;50.794;7.054;2023-03-16T04:22:03;101033.16;;;2.39;85.55
72925;BME280;61070;50.794;7.054;2023-03-16T04:24:28;101034.13;;;2.42;84.53
72925;BME280;61070;50.794;7.054;2023-03-16T04:26:53;101028.84;;;2.39;84.83
72925;BME280;61070;50.794;7.054;2023-03-16T04:29:19;101028.38;;;2.55;84.29
72925;BME280;61070;50.794;7.054;2023-03-16T04:31:45;101016.66;;;2.40;84.84
72925;BME280;61070;50.794;7.054;2023-03-16T04:34:11;101016.69;;;2.41;84.94
72925;BME280;61070;50.794;7.054;2023-03-16T04:36:37;101021.97;;;2.44;84.96
72925;BME280;61070;50.794;7.054;2023-03-16T04:39:03;101014.78;;;2.70;83.58
72925;BME280;61070;50.794;7.054;2023-03-16T04:41:29;101015.31;;;2.57;84.29
72925;BME280;61070;50.794;7.054;2023-03-16T04:43:54;101006.78;;;2.62;84.20
72925;BME280;61070;50.794;7.054;2023-03-16T04:46:22;101007.97;;;2.75;83.56
72925;BME280;61070;50.794;7.054;2023-03-16T04:48:47;101000.72;;;3.01;82.70
72925;BME280;61070;50.794;7.054;2023-03-16T04:51:12;100998.81;;;2.94;82.44
72925;BME280;61070;50.794;7.054;2023-03-16T04:53:38;100998.72;;;2.91;82.60
72925;BME280;61070;50.794;7.054;2023-03-16T04:56:03;100992.66;;;2.92;82.51
72925;BME280;61070;50.794;7.054;2023-03-16T04:58:29;100987.34;;;2.89;82.83
72925;BME280;61070;50.794;7.054;2023-03-16T05:00:54;100981.50;;;2.99;82.29
72925;BME280;61070;50.794;7.054;2023-03-16T05:03:20;100985.56;;;2.86;83.08
72925;BME280;61070;50.794;7.054;2023-03-16T05:05:46;100987.53;;;2.97;82.45
72925;BME280;61070;50.794;7.054;2023-03-16T05:08:12;100972.63;;;2.94;81.96
72925;BME280;61070;50.794;7.054;2023-03-16T05:10:37;100975.34;;;2.97;82.05
72925;BME280;61070;50.794;7.054;2023-03-16T05:13:04;100980.69;;;3.02;82.13
72925;BME280;61070;50.794;7.054;2023-03-16T05:15:29;100979.94;;;3.07;81.95
72925;BME280;61070;50.794;7.054;2023-03-16T05:17:55;100975.56;;;3.06;81.89
72925;BME280;61070;50.794;7.054;2023-03-16T05:20:21;100978.00;;;2.99;82.07
72925;BME280;61070;50.794;7.054;2023-03-16T05:22:47;100982.19;;;2.92;82.56
72925;BME280;61070;50.794;7.054;2023-03-16T05:25:13;100981.44;;;2.96;82.44
72925;BME280;61070;50.794;7.054;2023-03-16T05:27:47;100977.13;;;2.98;82.40
72925;BME280;61070;50.794;7.054;2023-03-16T05:30:14;100976.38;;;3.05;82.44
72925;BME280;61070;50.794;7.054;2023-03-16T05:32:43;100985.03;;;3.01;82.25
72925;BME280;61070;50.794;7.054;2023-03-16T05:35:09;100985.19;;;3.07;82.20
72925;BME280;61070;50.794;7.054;2023-03-16T05:37:38;100984.34;;;3.08;81.93
72925;BME280;61070;50.794;7.054;2023-03-16T05:40:06;100997.31;;;3.05;82.48
72925;BME280;61070;50.794;7.054;2023-03-16T05:42:48;100979.84;;;3.04;82.50
72925;BME280;61070;50.794;7.054;2023-03-16T05:45:15;100972.63;;;2.94;83.07
72925;BME280;61070;50.794;7.054;2023-03-16T05:47:41;100983.44;;;3.08;81.85
72925;BME280;61070;50.794;7.054;2023-03-16T05:50:08;100987.88;;;3.12;81.67
72925;BME280;61070;50.794;7.054;2023-03-16T05:52:36;100984.47;;;3.16;81.56
72925;BME280;61070;50.794;7.054;2023-03-16T05:55:01;100984.41;;;3.13;81.53
72925;BME280;61070;50.794;7.054;2023-03-16T05:57:26;100985.56;;;3.26;80.85
72925;BME280;61070;50.794;7.054;2023-03-16T05:59:52;100985.25;;;3.10;81.84
72925;BME280;61070;50.794;7.054;2023-03-16T06:02:17;100980.28;;;3.22;80.93
72925;BME280;61070;50.794;7.054;2023-03-16T06:04:42;100977.75;;;3.27;80.86
72925;BME280;61070;50.794;7.054;2023-03-16T06:07:08;100980.03;;;3.12;81.16
72925;BME280;61070;50.794;7.054;2023-03-16T06:09:33;100988.78;;;3.12;81.60
72925;BME280;61070;50.794;7.054;2023-03-16T06:11:58;100991.31;;;3.09;81.71
72925;BME280;61070;50.794;7.054;2023-03-16T06:14:24;100992.25;;;3.11;81.74
72925;BME280;61070;50.794;7.054;2023-03-16T06:16:50;100994.25;;;3.23;81.38
72925;BME280;61070;50.794;7.054;2023-03-16T06:19:15;100990.00;;;3.28;81.34
72925;BME280;61070;50.794;7.054;2023-03-16T06:21:41;100993.31;;;3.19;81.17
72925;BME280;61070;50.794;7.054;2023-03-16T06:24:06;100991.72;;;3.28;81.49
72925;BME280;61070;50.794;7.054;2023-03-16T06:26:33;101000.28;;;3.19;81.63
72925;BME280;61070;50.794;7.054;2023-03-16T06:28:59;100995.31;;;3.31;81.54
72925;BME280;61070;50.794;7.054;2023-03-16T06:31:24;101002.31;;;3.32;81.16
72925;BME280;61070;50.794;7.054;2023-03-16T06:33:49;100998.69;;;3.27;81.70
72925;BME280;61070;50.794;7.054;2023-03-16T06:36:15;100998.97;;;3.39;81.17
72925;BME280;61070;50.794;7.054;2023-03-16T06:38:41;100994.91;;;3.52;80.60
72925;BME280;61070;50.794;7.054;2023-03-16T06:41:06;100994.03;;;3.53;81.50
72925;BME280;61070;50.794;7.054;2023-03-16T06:43:31;100993.09;;;3.51;81.04
72925;BME280;61070;50.794;7.054;2023-03-16T06:45:57;100985.38;;;3.57;80.68
72925;BME280;61070;50.794;7.054;2023-03-16T06:48:23;100997.84;;;3.69;79.95
72925;BME280;61070;50.794;7.054;2023-03-16T06:50:48;100991.94;;;3.77;79.97
72925;BME280;61070;50.794;7.054;2023-03-16T06:53:13;100997.25;;;3.82;79.90
72925;BME280;61070;50.794;7.054;2023-03-16T06:55:39;101000.63;;;3.75;80.17
72925;BME280;61070;50.794;7.054;2023-03-16T06:58:05;100997.19;;;3.79;80.04
72925;BME280;61070;50.794;7.054;2023-03-16T07:00:31;101005.25;;;3.88;79.08
72925;BME280;61070;50.794;7.054;2023-03-16T07:02:58;101008.13;;;4.00;79.10
72925;BME280;61070;50.794;7.054;2023-03-16T07:05:24;101006.34;;;3.99;79.09
72925;BME280;61070;50.794;7.054;2023-03-16T07:07:49;101003.81;;;4.05;78.64
72925;BME280;61070;50.794;7.054;2023-03-16T07:10:16;101006.25;;;3.96;78.73
72925;BME280;61070;50.794;7.054;2023-03-16T07:12:43;101000.13;;;3.96;79.12
72925;BME280;61070;50.794;7.054;2023-03-16T07:15:09;101005.53;;;4.03;78.19
72925;BME280;61070;50.794;7.054;2023-03-16T07:17:35;101004.72;;;4.06;78.30
72925;BME280;61070;50.794;7.054;2023-03-16T07:20:00;101009.22;;;4.13;78.26
72925;BME280;61070;50.794;7.054;2023-03-16T07:22:30;101012.88;;;4.21;78.28
72925;BME280;61070;50.794;7.054;2023-03-16T07:24:56;101005.25;;;4.33;77.53
72925;BME280;61070;50.794;7.054;2023-03-16T07:27:25;101006.09;;;4.31;77.60
72925;BME280;61070;50.794;7.054;2023-03-16T07:29:50;101006.38;;;4.49;77.68
72925;BME280;61070;50.794;7.054;2023-03-16T07:32:19;101007.41;;;4.57;77.16
72925;BME280;61070;50.794;7.054;2023-03-16T07:34:44;101003.00;;;4.55;77.27
72925;BME280;61070;50.794;7.054;2023-03-16T07:37:10;101019.03;;;4.72;76.46
72925;BME280;61070;50.794;7.054;2023-03-16T07:39:35;101015.63;;;4.76;76.09
72925;BME280;61070;50.794;7.054;2023-03-16T07:42:01;101012.16;;;4.78;75.51
72925;BME280;61070;50.794;7.054;2023-03-16T07:44:26;101016.56;;;4.82;75.87
72925;BME280;61070;50.794;7.054;2023-03-16T07:46:52;101005.41;;;4.95;75.93
72925;BME280;61070;50.794;7.054;2023-03-16T07:49:17;101004.69;;;5.06;75.04
72925;BME280;61070;50.794;7.054;2023-03-16T07:51:43;101015.38;;;5.16;75.16
72925;BME280;61070;50.794;7.054;2023-03-16T07:54:08;101006.56;;;5.13;74.32
72925;BME280;61070;50.794;7.054;2023-03-16T07:56:33;101007.50;;;5.18;74.01
72925;BME280;61070;50.794;7.054;2023-03-16T07:58:59;101000.59;;;5.23;73.43
72925;BME280;61070;50.794;7.054;2023-03-16T08:01:24;100997.19;;;5.30;73.52
72925;BME280;61070;50.794;7.054;2023-03-16T08:03:49;100993.53;;;5.20;73.88
72925;BME280;61070;50.794;7.054;2023-03-16T08:06:14;100994.47;;;5.24;73.75
72925;BME280;61070;50.794;7.054;2023-03-16T08:08:40;100979.97;;;5.52;72.88
72925;BME280;61070;50.794;7.054;2023-03-16T08:11:05;100984.19;;;5.39;72.76
72925;BME280;61070;50.794;7.054;2023-03-16T08:13:30;100988.66;;;5.46;73.66
72925;BME280;61070;50.794;7.054;2023-03-16T08:15:56;100991.44;;;5.57;73.21
72925;BME280;61070;50.794;7.054;2023-03-16T08:18:26;100984.44;;;5.56;72.62
72925;BME280;61070;50.794;7.054;2023-03-16T08:20:54;100988.16;;;5.75;72.51
72925;BME280;61070;50.794;7.054;2023-03-16T08:23:20;100990.84;;;5.79;72.44
72925;BME280;61070;50.794;7.054;2023-03-16T08:25:51;100995.22;;;5.79;72.46
72925;BME280;61070;50.794;7.054;2023-03-16T08:28:16;100994.38;;;5.81;72.01
72925;BME280;61070;50.794;7.054;2023-03-16T08:30:47;100993.41;;;5.75;71.58
72925;BME280;61070;50.794;7.054;2023-03-16T08:33:12;100998.94;;;5.93;71.65
72925;BME280;61070;50.794;7.054;2023-03-16T08:35:43;101002.47;;;5.98;71.23
72925;BME280;61070;50.794;7.054;2023-03-16T08:38:09;101006.94;;;6.05;72.05
72925;BME280;61070;50.794;7.054;2023-03-16T08:40:35;100997.41;;;6.15;71.17
72925;BME280;61070;50.794;7.054;2023-03-16T08:43:00;100996.72;;;6.33;72.20
72925;BME280;61070;50.794;7.054;2023-03-16T08:45:26;100998.41;;;6.26;70.62
72925;BME280;61070;50.794;7.054;2023-03-16T08:47:52;100995.13;;;6.47;70.76
72925;BME280;61070;50.794;7.054;2023-03-16T08:50:18;100991.63;;;6.48;70.60
72925;BME280;61070;50.794;7.054;2023-03-16T08:52:43;100986.56;;;6.71;70.02
72925;BME280;61070;50.794;7.054;2023-03-16T08:55:09;100980.25;;;6.54;70.43
72925;BME280;61070;50.794;7.054;2023-03-16T08:57:35;100980.25;;;6.55;69.86
72925;BME280;61070;50.794;7.054;2023-03-16T09:00:02;100985.59;;;6.61;70.15
72925;BME280;61070;50.794;7.054;2023-03-16T09:02:36;100986.41;;;6.54;70.34
72925;BME280;61070;50.794;7.054;2023-03-16T09:05:02;100982.88;;;6.54;70.47
72925;BME280;61070;50.794;7.054;2023-03-16T09:07:29;100990.78;;;6.55;71.43
72925;BME280;61070;50.794;7.054;2023-03-16T09:09:54;100981.22;;;6.62;70.90
72925;BME280;61070;50.794;7.054;2023-03-16T09:12:19;100993.53;;;6.67;70.41
72925;BME280;61070;50.794;7.054;2023-03-16T09:14:46;100986.63;;;6.80;70.54
72925;BME280;61070;50.794;7.054;2023-03-16T09:17:13;100978.75;;;6.80;69.84
72925;BME280;61070;50.794;7.054;2023-03-16T09:19:38;100970.72;;;6.66;70.80
72925;BME280;61070;50.794;7.054;2023-03-16T09:22:04;100968.25;;;6.86;70.07
72925;BME280;61070;50.794;7.054;2023-03-16T09:24:31;100976.09;;;6.80;69.83
72925;BME280;61070;50.794;7.054;2023-03-16T09:26:56;100964.81;;;6.96;69.23
72925;BME280;61070;50.794;7.054;2023-03-16T09:29:21;100974.53;;;7.05;69.59
72925;BME280;61070;50.794;7.054;2023-03-16T09:31:47;100971.09;;;7.14;69.19
72925;BME280;61070;50.794;7.054;2023-03-16T09:34:13;100971.97;;;7.14;69.67
72925;BME280;61070;50.794;7.054;2023-03-16T09:36:38;100976.38;;;7.23;68.67
72925;BME280;61070;50.794;7.054;2023-03-16T09:39:04;100963.13;;;7.05;68.14
72925;BME280;61070;50.794;7.054;2023-03-16T09:42:07;100951.72;;;7.09;69.46
72925;BME280;61070;50.794;7.054;2023-03-16T09:47:25;100957.13;;;7.32;69.47
72925;BME280;61070;50.794;7.054;2023-03-16T09:49:56;100951.03;;;7.39;68.78
72925;BME280;61070;50.794;7.054;2023-03-16T09:52:39;100951.91;;;7.39;68.61
72925;BME280;61070;50.794;7.054;2023-03-16T09:55:35;100950.19;;;7.50;67.73
72925;BME280;61070;50.794;7.054;2023-03-16T09:58:04;100948.38;;;7.40;67.19
72925;BME280;61070;50.794;7.054;2023-03-16T10:00:49;100943.94;;;7.33;67.49
72925;BME280;61070;50.794;7.054;2023-03-16T10:05:57;100940.53;;;7.57;66.97
72925;BME280;61070;50.794;7.054;2023-03-16T10:08:26;100940.53;;;7.57;67.36
72925;BME280;61070;50.794;7.054;2023-03-16T10:16:53;100931.75;;;7.55;67.38
72925;BME280;61070;50.794;7.054;2023-03-16T10:21:59;100932.66;;;7.60;67.95
72925;BME280;61070;50.794;7.054;2023-03-16T10:27:28;100925.69;;;7.76;67.04
72925;BME280;61070;50.794;7.054;2023-03-16T10:29:54;100930.13;;;7.81;66.90
72925;BME280;61070;50.794;7.054;2023-03-16T10:32:20;100922.19;;;7.81;66.91
72925;BME280;61070;50.794;7.054;2023-03-16T10:34:56;100920.44;;;7.85;66.01
72925;BME280;61070;50.794;7.054;2023-03-16T10:37:23;100923.09;;;7.89;66.54
72925;BME280;61070;50.794;7.054;2023-03-16T10:39:48;100919.63;;;8.07;65.47
72925;BME280;61070;50.794;7.054;2023-03-16T10:42:19;100914.34;;;8.12;65.18
72925;BME280;61070;50.794;7.054;2023-03-16T10:44:45;100917.91;;;8.35;64.93
72925;BME280;61070;50.794;7.054;2023-03-16T10:47:17;100919.63;;;8.33;64.90
72925;BME280;61070;50.794;7.054;2023-03-16T10:49:44;100917.91;;;8.70;64.47
72925;BME280;61070;50.794;7.054;2023-03-16T10:52:21;100914.41;;;8.67;63.20
72925;BME280;61070;50.794;7.054;2023-03-16T10:54:56;100909.09;;;8.76;63.03
72925;BME280;61070;50.794;7.054;2023-03-16T10:57:24;100894.13;;;8.96;62.96
72925;BME280;61070;50.794;7.054;2023-03-16T10:59:52;100891.38;;;9.25;63.14
72925;BME280;61070;50.794;7.054;2023-03-16T11:02:31;100891.31;;;9.39;62.00
72925;BME280;61070;50.794;7.054;2023-03-16T11:04:57;100889.59;;;9.33;61.18
72925;BME280;61070;50.794;7.054;2023-03-16T11:07:23;100887.78;;;9.43;61.20
72925;BME280;61070;50.794;7.054;2023-03-16T11:09:50;100879.88;;;9.34;61.84
72925;BME280;61070;50.794;7.054;2023-03-16T11:12:25;100872.78;;;9.47;61.24
72925;BME280;61070;50.794;7.054;2023-03-16T11:14:51;100873.59;;;9.61;60.25
72925;BME280;61070;50.794;7.054;2023-03-16T11:17:27;100871.84;;;9.58;61.14
72925;BME280;61070;50.794;7.054;2023-03-16T11:20:02;100864.81;;;9.54;60.15
72925;BME280;61070;50.794;7.054;2023-03-16T11:22:38;100855.94;;;9.68;60.26
72925;BME280;61070;50.794;7.054;2023-03-16T11:25:18;100866.38;;;9.89;59.70
72925;BME280;61070;50.794;7.054;2023-03-16T11:27:57;100844.06;;;10.28;59.16
72925;BME280;61070;50.794;7.054;2023-03-16T11:30:49;100848.28;;;10.49;58.77
72925;BME280;61070;50.794;7.054;2023-03-16T11:33:15;100842.25;;;10.33;58.92
72925;BME280;61070;50.794;7.054;2023-03-16T11:35:59;100834.31;;;10.35;58.30
72925;BME280;61070;50.794;7.054;2023-03-16T11:41:09;100813.88;;;10.47;57.74
72925;BME280;61070;50.794;7.054;2023-03-16T11:46:59;100803.81;;;10.80;57.72
72925;BME280;61070;50.794;7.054;2023-03-16T11:49:15;100806.38;;;10.86;57.00
72925;BME280;61070;50.794;7.054;2023-03-16T12:00:06;100794.56;;;11.15;55.79
72925;BME280;61070;50.794;7.054;2023-03-16T12:02:48;100806.88;;;11.22;56.04
72925;BME280;61070;50.794;7.054;2023-03-16T12:05:42;100802.34;;;11.28;56.39
72925;BME280;61070;50.794;7.054;2023-03-16T12:10:57;100785.31;;;11.46;55.25
72925;BME280;61070;50.794;7.054;2023-03-16T12:16:23;100780.06;;;11.40;55.96
72925;BME280;61070;50.794;7.054;2023-03-16T12:18:54;100777.19;;;11.57;56.93
72925;BME280;61070;50.794;7.054;2023-03-16T12:21:30;100775.78;;;11.31;55.12
72925;BME280;61070;50.794;7.054;2023-03-16T12:24:13;100768.66;;;11.36;55.56
72925;BME280;61070;50.794;7.054;2023-03-16T12:26:41;100770.13;;;11.54;55.42
72925;BME280;61070;50.794;7.054;2023-03-16T12:29:24;100763.09;;;11.53;55.84
72925;BME280;61070;50.794;7.054;2023-03-16T12:31:57;100745.41;;;11.52;55.44
72925;BME280;61070;50.794;7.054;2023-03-16T12:37:21;100728.75;;;12.00;54.21
72925;BME280;61070;50.794;7.054;2023-03-16T12:43:45;100731.78;;;11.80;54.01
72925;BME280;61070;50.794;7.054;2023-03-16T12:49:06;100713.03;;;11.87;54.03
72925;BME280;61070;50.794;7.054;2023-03-16T12:51:40;100719.97;;;11.96;53.97
72925;BME280;61070;50.794;7.054;2023-03-16T12:54:17;100711.13;;;11.95;53.02
72925;BME280;61070;50.794;7.054;2023-03-16T12:56:44;100702.28;;;11.95;53.17
72925;BME280;61070;50.794;7.054;2023-03-16T12:59:24;100701.69;;;11.76;53.20
72925;BME280;61070;50.794;7.054;2023-03-16T13:01:52;100687.19;;;11.99;53.86
72925;BME280;61070;50.794;7.054;2023-03-16T13:07:02;100692.25;;;12.11;53.55
72925;BME280;61070;50.794;7.054;2023-03-16T13:09:29;100679.28;;;11.95;52.93
72925;BME280;61070;50.794;7.054;2023-03-16T13:11:58;100672.13;;;12.01;53.00
72925;BME280;61070;50.794;7.054;2023-03-16T13:14:33;100659.84;;;11.93;53.50
72925;BME280;61070;50.794;7.054;2023-03-16T13:17:04;100662.44;;;11.97;52.50
72925;BME280;61070;50.794;7.054;2023-03-16T13:19:30;100653.00;;;11.82;53.63
72925;BME280;61070;50.794;7.054;2023-03-16T13:25:15;100651.63;;;12.07;51.82
72925;BME280;61070;50.794;7.054;2023-03-16T13:27:45;100658.66;;;12.10;52.11
72925;BME280;61070;50.794;7.054;2023-03-16T13:30:24;100649.16;;;11.97;51.75
72925;BME280;61070;50.794;7.054;2023-03-16T13:32:54;100638.50;;;12.00;51.95
72925;BME280;61070;50.794;7.054;2023-03-16T13:35:24;100643.91;;;11.95;51.58
72925;BME280;61070;50.794;7.054;2023-03-16T13:37:51;100632.59;;;11.84;51.98
72925;BME280;61070;50.794;7.054;2023-03-16T13:40:25;100634.13;;;11.97;51.42
72925;BME280;61070;50.794;7.054;2023-03-16T13:42:52;100623.72;;;11.85;52.56
72925;BME280;61070;50.794;7.054;2023-03-16T13:45:39;100626.28;;;11.91;52.54
72925;BME280;61070;50.794;7.054;2023-03-16T13:48:05;100628.91;;;11.92;52.17
72925;BME280;61070;50.794;7.054;2023-03-16T13:50:34;100612.28;;;11.83;52.32
72925;BME280;61070;50.794;7.054;2023-03-16T13:53:12;100600.34;;;11.56;53.22
72925;BME280;61070;50.794;7.054;2023-03-16T13:55:39;100606.53;;;11.56;52.80
72925;BME280;61070;50.794;7.054;2023-03-16T13:58:04;100602.59;;;11.77;53.03
72925;BME280;61070;50.794;7.054;2023-03-16T14:00:33;100603.38;;;11.85;52.90